Time;durP1;ratioP1;P1;durP2;ratioP2;P2;SDS_P1;SDS_P2;PMS_P1;PMS_P2;Temp;Humidity;BMP_temperature;BMP_pressure;BME280_temperature;BME280_humidity;BME280_pressure;Samples;Min_cycle;Max_cycle;Signal;HPM_P1;HPM_P2
2023/03/05 00:02:12;;;;;;;;;;;;;;;2.61;89.08984;102382.2;;;;-71
2023/03/05 00:02:32;;;;;;;1.5;0.6;;;;;;;;;;;;;-72
2023/03/05 00:07:13;;;;;;;;;;;;;;;2.56;89.33008;102379;;;;-71
2023/03/05 00:12:13;;;;;;;;;;;;;;;2.59;89.16211;102377.1;;;;-71
2023/03/05 00:17:12;;;;;;;;;;;;;;;2.5;89.46973;102369.8;;;;-70
2023/03/05 00:22:12;;;;;;;;;;;;;;;2.48;89.2168;102366.4;;;;-70
2023/03/05 00:27:13;;;;;;;;;;;;;;;2.43;89.11914;102371.1;;;;-72
2023/03/05 00:32:12;;;;;;;;;;;;;;;2.4;89.05957;102364.6;;;;-70
2023/03/05 00:32:32;;;;;;;2.1;0.7;;;;;;;;;;;;;-70
2023/03/05 00:37:13;;;;;;;;;;;;;;;2.37;88.99805;102361.1;;;;-70
2023/03/05 00:42:13;;;;;;;;;;;;;;;2.32;89.3457;102355.2;;;;-71
2023/03/05 00:47:12;;;;;;;;;;;;;;;2.28;89.3584;102355;;;;-72
2023/03/05 00:52:12;;;;;;;;;;;;;;;2.2;89.15918;102355.6;;;;-70
2023/03/05 00:57:12;;;;;;;;;;;;;;;2.21;89.17188;102354.2;;;;-71
2023/03/05 01:02:13;;;;;;;;;;;;;;;2.16;88.95508;102342.7;;;;-71
2023/03/05 01:02:31;;;;;;;2.9;0.8;;;;;;;;;;;;;-70
2023/03/05 01:07:12;;;;;;;;;;;;;;;2.14;89.11328;102336.8;;;;-71
2023/03/05 01:12:12;;;;;;;;;;;;;;;2.1;89.25684;102330.8;;;;-70
2023/03/05 01:17:12;;;;;;;;;;;;;;;2.07;88.81641;102338.8;;;;-72
2023/03/05 01:22:12;;;;;;;;;;;;;;;2.06;89.2041;102340.3;;;;-72
2023/03/05 01:27:12;;;;;;;;;;;;;;;2.08;88.85059;102327.8;;;;-70
2023/03/05 01:32:12;;;;;;;;;;;;;;;2.12;89.03125;102318.5;;;;-71
2023/03/05 01:32:31;;;;;;;2.5;0.6;;;;;;;;;;;;;-71
2023/03/05 01:37:12;;;;;;;;;;;;;;;2.13;89.18652;102304;;;;-71
2023/03/05 01:42:12;;;;;;;;;;;;;;;2.17;88.84863;102297.4;;;;-71
2023/03/05 01:47:12;;;;;;;;;;;;;;;2.17;89;102291.3;;;;-72
2023/03/05 01:52:16;;;;;;;;;;;;;;;2.17;89.28125;102278.4;;;;-71
2023/03/05 01:57:15;;;;;;;;;;;;;;;2.15;89.08301;102270.2;;;;-71
2023/03/05 02:02:13;;;;;;;;;;;;;;;2.1;89.12695;102265.7;;;;-70
2023/03/05 02:02:31;;;;;;;2.5;0.5;;;;;;;;;;;;;-71
2023/03/05 02:07:14;;;;;;;;;;;;;;;2.1;89.33301;102252.8;;;;-71
2023/03/05 02:12:14;;;;;;;;;;;;;;;2.09;89.92383;102244.1;;;;-71
2023/03/05 02:17:13;;;;;;;;;;;;;;;2.1;89.58105;102232.6;;;;-71
2023/03/05 02:22:17;;;;;;;;;;;;;;;2.13;89.24121;102230.6;;;;-71
2023/03/05 02:27:12;;;;;;;;;;;;;;;2.15;89.2793;102234;;;;-71
2023/03/05 02:32:12;;;;;;;;;;;;;;;2.2;89.38379;102242.7;;;;-71
2023/03/05 02:32:31;;;;;;;2.2;0.6;;;;;;;;;;;;;-71
2023/03/05 02:37:12;;;;;;;;;;;;;;;2.23;89.3252;102226.8;;;;-71
2023/03/05 02:42:12;;;;;;;;;;;;;;;2.24;89.37207;102213;;;;-71
2023/03/05 02:47:12;;;;;;;;;;;;;;;2.26;89.23535;102203.6;;;;-71
2023/03/05 02:52:12;;;;;;;;;;;;;;;2.26;89.01855;102193.7;;;;-70
2023/03/05 02:57:12;;;;;;;;;;;;;;;2.24;89.20996;102180.3;;;;-71
2023/03/05 03:02:12;;;;;;;;;;;;;;;2.22;89.01074;102179.3;;;;-71
2023/03/05 03:02:30;;;;;;;1.7;0.3;;;;;;;;;;;;;-71
2023/03/05 03:07:12;;;;;;;;;;;;;;;2.19;89.13379;102180.1;;;;-71
2023/03/05 03:12:12;;;;;;;;;;;;;;;2.14;88.97266;102171.6;;;;-71
2023/03/05 03:17:13;;;;;;;;;;;;;;;2.13;89.24121;102160.3;;;;-71
2023/03/05 03:22:13;;;;;;;;;;;;;;;2.11;89.24609;102154.9;;;;-71
2023/03/05 03:27:13;;;;;;;;;;;;;;;2.09;89.46973;102147.9;;;;-71
2023/03/05 03:32:12;;;;;;;;;;;;;;;2.05;89.0918;102139.7;;;;-71
2023/03/05 03:32:31;;;;;;;0.7;0.3;;;;;;;;;;;;;-70
2023/03/05 03:37:12;;;;;;;;;;;;;;;2.02;89.36816;102137.8;;;;-70
2023/03/05 03:42:13;;;;;;;;;;;;;;;2.02;89.12988;102137.8;;;;-71
2023/03/05 03:47:12;;;;;;;;;;;;;;;1.99;89.64355;102132.8;;;;-70
2023/03/05 03:52:12;;;;;;;;;;;;;;;1.98;89.44727;102122.4;;;;-72
2023/03/05 03:57:12;;;;;;;;;;;;;;;1.95;89.62695;102122;;;;-71
2023/03/05 04:02:12;;;;;;;;;;;;;;;1.97;89.2373;102117.4;;;;-71
2023/03/05 04:02:30;;;;;;;1.8;0.3;;;;;;;;;;;;;-71
2023/03/05 04:07:12;;;;;;;;;;;;;;;2;89.39844;102121.1;;;;-71
2023/03/05 04:12:16;;;;;;;;;;;;;;;1.99;88.97461;102118.2;;;;-70
2023/03/05 04:17:13;;;;;;;;;;;;;;;2.02;89.31543;102115.9;;;;-71
2023/03/05 04:22:13;;;;;;;;;;;;;;;2.05;89.125;102113.2;;;;-71
2023/03/05 04:27:13;;;;;;;;;;;;;;;2.07;89.25977;102101.7;;;;-71
2023/03/05 04:32:12;;;;;;;;;;;;;;;2.08;89.1543;102088.9;;;;-72
2023/03/05 04:32:30;;;;;;;1.7;0.4;;;;;;;;;;;;;-72
2023/03/05 04:37:12;;;;;;;;;;;;;;;2.08;89.16504;102084.6;;;;-71
2023/03/05 04:42:13;;;;;;;;;;;;;;;2.09;89.05859;102076.2;;;;-71
2023/03/05 04:47:12;;;;;;;;;;;;;;;2.09;88.90723;102079.6;;;;-71
2023/03/05 04:52:13;;;;;;;;;;;;;;;2.09;88.74512;102075.6;;;;-70
2023/03/05 04:57:12;;;;;;;;;;;;;;;2.09;89.1123;102064.4;;;;-71
2023/03/05 05:02:12;;;;;;;;;;;;;;;2.11;88.9541;102060.1;;;;-71
2023/03/05 05:02:29;;;;;;;0.8;0.2;;;;;;;;;;;;;-71
2023/03/05 05:07:12;;;;;;;;;;;;;;;2.1;88.99707;102054.2;;;;-71
2023/03/05 05:12:13;;;;;;;;;;;;;;;2.08;88.62598;102052.7;;;;-71
2023/03/05 05:17:12;;;;;;;;;;;;;;;2.08;88.90723;102048.9;;;;-71
2023/03/05 05:22:12;;;;;;;;;;;;;;;2.07;89.19531;102049;;;;-71
2023/03/05 05:27:12;;;;;;;;;;;;;;;2.05;88.94434;102043;;;;-71
2023/03/05 05:32:12;;;;;;;;;;;;;;;2.02;88.96973;102041.5;;;;-71
2023/03/05 05:32:29;;;;;;;1;0.2;;;;;;;;;;;;;-71
2023/03/05 05:37:12;;;;;;;;;;;;;;;1.98;89.02539;102039.1;;;;-72
2023/03/05 05:42:12;;;;;;;;;;;;;;;1.99;89.2002;102029.5;;;;-71
2023/03/05 05:47:12;;;;;;;;;;;;;;;1.98;89.08105;102030.4;;;;-71
2023/03/05 05:52:12;;;;;;;;;;;;;;;1.99;89.18945;102019;;;;-71
2023/03/05 05:57:12;;;;;;;;;;;;;;;1.99;89.23242;102017.2;;;;-71
2023/03/05 06:02:13;;;;;;;;;;;;;;;1.97;89.02148;102023.5;;;;-71
2023/03/05 06:02:28;;;;;;;1;0.3;;;;;;;;;;;;;-71
2023/03/05 06:07:12;;;;;;;;;;;;;;;1.94;88.9834;102010;;;;-71
2023/03/05 06:12:13;;;;;;;;;;;;;;;1.95;89.06055;102015;;;;-71
2023/03/05 06:17:12;;;;;;;;;;;;;;;1.95;89.19434;102011.9;;;;-71
2023/03/05 06:22:12;;;;;;;;;;;;;;;1.96;89.02148;102016.4;;;;-71
2023/03/05 06:27:12;;;;;;;;;;;;;;;1.97;89.05371;102015.2;;;;-71
2023/03/05 06:32:12;;;;;;;;;;;;;;;1.98;89.07031;102019.2;;;;-70
2023/03/05 06:32:28;;;;;;;0.9;0.3;;;;;;;;;;;;;-71
2023/03/05 06:37:12;;;;;;;;;;;;;;;1.97;89.02539;102021.8;;;;-70
2023/03/05 06:42:12;;;;;;;;;;;;;;;2.02;88.77246;102026.8;;;;-71
2023/03/05 06:47:13;;;;;;;;;;;;;;;2.03;88.98242;102026.5;;;;-71
2023/03/05 06:52:12;;;;;;;;;;;;;;;2.05;88.89063;102029;;;;-70
2023/03/05 06:57:13;;;;;;;;;;;;;;;2.07;88.78418;102023.1;;;;-70
2023/03/05 07:02:13;;;;;;;;;;;;;;;2.09;88.67969;102019.4;;;;-75
2023/03/05 07:02:28;;;;;;;0.6;0.2;;;;;;;;;;;;;-70
2023/03/05 07:07:12;;;;;;;;;;;;;;;2.13;88.76465;102016.3;;;;-71
2023/03/05 07:12:12;;;;;;;;;;;;;;;2.15;88.82324;102008.1;;;;-70
2023/03/05 07:17:14;;;;;;;;;;;;;;;2.19;88.66797;102002.3;;;;-71
2023/03/05 07:22:13;;;;;;;;;;;;;;;2.25;88.62695;101999.7;;;;-71
2023/03/05 07:27:12;;;;;;;;;;;;;;;2.32;88.60742;101994.7;;;;-71
2023/03/05 07:32:12;;;;;;;;;;;;;;;2.37;88.5;101996.6;;;;-71
2023/03/05 07:32:27;;;;;;;0.5;0.3;;;;;;;;;;;;;-71
2023/03/05 07:37:12;;;;;;;;;;;;;;;2.47;88.76953;101989.3;;;;-70
2023/03/05 07:42:12;;;;;;;;;;;;;;;2.6;88.62402;101996.2;;;;-72
2023/03/05 07:47:12;;;;;;;;;;;;;;;2.83;88.3457;101993.3;;;;-70
2023/03/05 07:52:12;;;;;;;;;;;;;;;3;87.88086;101993.8;;;;-71
2023/03/05 07:57:13;;;;;;;;;;;;;;;3.1;87.57715;101987.4;;;;-71
2023/03/05 08:02:13;;;;;;;;;;;;;;;3.17;87.34082;101983.5;;;;-71
2023/03/05 08:02:27;;;;;;;0.8;0.3;;;;;;;;;;;;;-71
2023/03/05 08:07:12;;;;;;;;;;;;;;;3.29;87.08301;101986.7;;;;-70
2023/03/05 08:12:12;;;;;;;;;;;;;;;3.4;86.84473;101980.2;;;;-70
2023/03/05 08:17:12;;;;;;;;;;;;;;;3.6;87.04785;101979.3;;;;-70
2023/03/05 08:22:14;;;;;;;;;;;;;;;3.79;86.23828;101976.4;;;;-71
2023/03/05 08:27:12;;;;;;;;;;;;;;;4.01;86.09668;101976;;;;-71
2023/03/05 08:32:12;;;;;;;;;;;;;;;4.23;86.14063;101962.7;;;;-71
2023/03/05 08:32:27;;;;;;;1;0.4;;;;;;;;;;;;;-70
2023/03/05 08:37:12;;;;;;;;;;;;;;;4.46;85.7832;101963.2;;;;-70
2023/03/05 08:42:12;;;;;;;;;;;;;;;4.9;85.77344;101957.3;;;;-72
2023/03/05 08:47:12;;;;;;;;;;;;;;;5.22;85.19531;101954;;;;-70
2023/03/05 08:52:12;;;;;;;;;;;;;;;5.42;84.52246;101950.7;;;;-71
2023/03/05 08:57:12;;;;;;;;;;;;;;;5.66;84.02246;101952.3;;;;-70
2023/03/05 09:02:12;;;;;;;;;;;;;;;5.7;83.49609;101947;;;;-69
2023/03/05 09:02:27;;;;;;;0.8;0.4;;;;;;;;;;;;;-71
2023/03/05 09:07:12;;;;;;;;;;;;;;;5.7;82.8623;101941.7;;;;-70
2023/03/05 09:12:14;;;;;;;;;;;;;;;5.69;82.92578;101943.4;;;;-71
2023/03/05 09:17:12;;;;;;;;;;;;;;;5.67;82.7041;101935.2;;;;-71
2023/03/05 09:22:12;;;;;;;;;;;;;;;5.82;83.21289;101930;;;;-70
2023/03/05 09:27:12;;;;;;;;;;;;;;;6.35;83.28125;101924.9;;;;-71
2023/03/05 09:32:13;;;;;;;;;;;;;;;7.02;82.20508;101922.2;;;;-70
2023/03/05 09:32:27;;;;;;;2.2;0.6;;;;;;;;;;;;;-70
2023/03/05 09:37:12;;;;;;;;;;;;;;;7.63;80.61719;101919.2;;;;-70
2023/03/05 09:42:29;;;;;;;;;;;;;;;7.97;79.12891;101915.5;;;;-70
2023/03/05 09:47:22;;;;;;;;;;;;;;;7.92;78.31738;101910.5;;;;-71
2023/03/05 09:52:18;;;;;;;;;;;;;;;7.79;77.96484;101902.3;;;;-71
2023/03/05 09:57:17;;;;;;;;;;;;;;;7.85;78.63574;101900.5;;;;-71
2023/03/05 10:02:15;;;;;;;;;;;;;;;8.22;78.92188;101900.5;;;;-71
2023/03/05 10:02:29;;;;;;;3.6;0.5;;;;;;;;;;;;;-70
2023/03/05 10:07:16;;;;;;;;;;;;;;;8.46;77.6543;101892.4;;;;-70
2023/03/05 10:12:18;;;;;;;;;;;;;;;8.45;77.06641;101890.6;;;;-70
2023/03/05 10:17:23;;;;;;;;;;;;;;;8.39;77.18945;101887.6;;;;-71
2023/03/05 10:22:17;;;;;;;;;;;;;;;8.55;77.16504;101881.5;;;;-71
2023/03/05 10:27:17;;;;;;;;;;;;;;;8.7;77.45313;101877.7;;;;-71
2023/03/05 10:32:19;;;;;;;;;;;;;;;9.1;76.6875;101864.5;;;;-71
2023/03/05 10:32:38;;;;;;;3.8;0.5;;;;;;;;;;;;;-71
2023/03/05 10:37:18;;;;;;;;;;;;;;;9.25;75.97168;101859;;;;-70
2023/03/05 10:42:15;;;;;;;;;;;;;;;9.25;75.79688;101858.2;;;;-71
2023/03/05 10:47:17;;;;;;;;;;;;;;;9.23;75.00879;101849.7;;;;-69
2023/03/05 10:52:16;;;;;;;;;;;;;;;9.06;74.73633;101845.3;;;;-71
2023/03/05 10:57:19;;;;;;;;;;;;;;;8.85;75.63867;101842.7;;;;-71
2023/03/05 11:02:12;;;;;;;;;;;;;;;8.57;76.40723;101838.3;;;;-70
2023/03/05 11:02:28;;;;;;;3;0.6;;;;;;;;;;;;;-70
2023/03/05 11:07:24;;;;;;;;;;;;;;;8.39;75.80078;101837;;;;-71
2023/03/05 11:12:20;;;;;;;;;;;;;;;8.32;76.50391;101828.4;;;;-71
2023/03/05 11:17:23;;;;;;;;;;;;;;;8.33;76.54004;101819.6;;;;-70
2023/03/05 11:22:19;;;;;;;;;;;;;;;8.43;77.12012;101814.6;;;;-71
2023/03/05 11:27:23;;;;;;;;;;;;;;;8.56;77.27539;101806.1;;;;-70
2023/03/05 11:32:24;;;;;;;;;;;;;;;8.69;77.3418;101796.9;;;;-71
2023/03/05 11:32:33;;;;;;;2.3;0.5;;;;;;;;;;;;;-71
2023/03/05 11:37:22;;;;;;;;;;;;;;;8.85;77.61523;101788.9;;;;-70
2023/03/05 11:42:14;;;;;;;;;;;;;;;8.95;77.40137;101786.5;;;;-70
2023/03/05 11:47:19;;;;;;;;;;;;;;;9.04;77.57031;101779.1;;;;-71
2023/03/05 11:52:16;;;;;;;;;;;;;;;9.19;77.5957;101771.9;;;;-70
2023/03/05 11:57:15;;;;;;;;;;;;;;;9.29;77.27148;101766.7;;;;-70
2023/03/05 12:02:18;;;;;;;;;;;;;;;9.3;77.08594;101754.1;;;;-70
2023/03/05 12:02:30;;;;;;;2.7;0.5;;;;;;;;;;;;;-70
2023/03/05 12:07:16;;;;;;;;;;;;;;;9.26;77.45508;101744.6;;;;-70
2023/03/05 12:12:20;;;;;;;;;;;;;;;9.3;77.96875;101742.9;;;;-71
2023/03/05 12:17:16;;;;;;;;;;;;;;;9.36;77.59375;101728.8;;;;-71
2023/03/05 12:22:18;;;;;;;;;;;;;;;9.5;78.20313;101726.2;;;;-70
2023/03/05 12:27:14;;;;;;;;;;;;;;;9.67;78.81055;101721.1;;;;-70
2023/03/05 12:32:27;;;;;;;;;;;;;;;9.63;77.21191;101713.8;;;;-70
2023/03/05 12:32:50;;;;;;;1.3;0.5;;;;;;;;;;;;;-70
2023/03/05 12:37:13;;;;;;;;;;;;;;;9.57;77.86426;101714.7;;;;-71
2023/03/05 12:42:23;;;;;;;;;;;;;;;9.53;77.09277;101713.1;;;;-71
2023/03/05 12:47:22;;;;;;;;;;;;;;;9.45;77.51172;101698.5;;;;-70
2023/03/05 12:52:19;;;;;;;;;;;;;;;9.48;77.86914;101683.7;;;;-72
2023/03/05 12:57:18;;;;;;;;;;;;;;;9.61;77.74805;101664.4;;;;-71
2023/03/05 13:02:17;;;;;;;;;;;;;;;9.71;77.22461;101656.6;;;;-71
2023/03/05 13:02:35;;;;;;;1.6;0.4;;;;;;;;;;;;;-70
2023/03/05 13:07:17;;;;;;;;;;;;;;;9.78;76.5957;101643.9;;;;-71
2023/03/05 13:12:15;;;;;;;;;;;;;;;9.88;76.24902;101641.2;;;;-70
2023/03/05 13:17:23;;;;;;;;;;;;;;;9.93;75.45996;101635.5;;;;-71
2023/03/05 13:22:16;;;;;;;;;;;;;;;10.02;74.90137;101620.6;;;;-71
2023/03/05 13:27:25;;;;;;;;;;;;;;;10.05;74.4082;101615.4;;;;-71
2023/03/05 13:32:25;;;;;;;;;;;;;;;10.01;74.69043;101603.9;;;;-71
2023/03/05 13:32:35;;;;;;;1.9;0.5;;;;;;;;;;;;;-71
2023/03/05 13:37:19;;;;;;;;;;;;;;;10.01;75.0332;101604.2;;;;-71
2023/03/05 13:42:18;;;;;;;;;;;;;;;9.96;74.73633;101600;;;;-71
2023/03/05 13:47:18;;;;;;;;;;;;;;;9.9;75.49023;101597.3;;;;-71
2023/03/05 13:52:14;;;;;;;;;;;;;;;9.89;76.0625;101595.5;;;;-73
2023/03/05 13:57:24;;;;;;;;;;;;;;;9.87;76.39063;101591.6;;;;-71
2023/03/05 14:02:20;;;;;;;;;;;;;;;9.75;77.19922;101591.5;;;;-71
2023/03/05 14:02:33;;;;;;;3.8;0.4;;;;;;;;;;;;;-71
2023/03/05 14:07:25;;;;;;;;;;;;;;;9.67;78.02637;101589.1;;;;-69
2023/03/05 14:12:25;;;;;;;;;;;;;;;9.6;79.86914;101581.1;;;;-71
2023/03/05 14:17:40;;;;;;;;;;;;;;;9.45;80.20605;101573.4;;;;-71
2023/03/05 14:22:23;;;;;;;;;;;;;;;9.35;80.25195;101576.5;;;;-70
2023/03/05 14:27:18;;;;;;;;;;;;;;;9.24;;101570.4;;;;-70
2023/03/05 14:32:21;;;;;;;;;;;;;;;9.09;79.81738;101560.4;;;;-71
2023/03/05 14:32:36;;;;;;;2;0.5;;;;;;;;;;;;;-70
2023/03/05 14:37:21;;;;;;;;;;;;;;;8.97;80.7666;101547.5;;;;-70
2023/03/05 14:42:23;;;;;;;;;;;;;;;8.85;81.06348;101536.9;;;;-71
2023/03/05 14:47:12;;;;;;;;;;;;;;;8.76;81.41016;101527.7;;;;-70
2023/03/05 14:52:13;;;;;;;;;;;;;;;8.82;82.75488;101518.3;;;;-70
2023/03/05 14:57:17;;;;;;;;;;;;;;;8.89;80.2002;101510.2;;;;-71
2023/03/05 15:02:18;;;;;;;;;;;;;;;9;80.99219;101498.7;;;;-71
2023/03/05 15:02:35;;;;;;;1.9;0.3;;;;;;;;;;;;;-72
2023/03/05 15:07:13;;;;;;;;;;;;;;;8.99;79.03906;101492.8;;;;-71
2023/03/05 15:12:13;;;;;;;;;;;;;;;8.95;79.47363;101485.7;;;;-70
2023/03/05 15:17:13;;;;;;;;;;;;;;;8.87;79.68945;101482.7;;;;-71
2023/03/05 15:22:13;;;;;;;;;;;;;;;8.76;79.36133;101476.1;;;;-71
2023/03/05 15:27:13;;;;;;;;;;;;;;;8.65;78.7373;101470.2;;;;-70
2023/03/05 15:32:12;;;;;;;;;;;;;;;8.57;81.25586;101465.6;;;;-71
2023/03/05 15:32:36;;;;;;;1.7;0.5;;;;;;;;;;;;;-71
2023/03/05 15:37:12;;;;;;;;;;;;;;;8.49;80.89746;101456.8;;;;-72
2023/03/05 15:42:12;;;;;;;;;;;;;;;8.4;81.02344;101448;;;;-69
2023/03/05 15:47:12;;;;;;;;;;;;;;;8.3;81.98535;101445.8;;;;-72
2023/03/05 15:52:13;;;;;;;;;;;;;;;8.2;81.9668;101447.8;;;;-72
2023/03/05 15:57:13;;;;;;;;;;;;;;;8.11;82.51074;101441.2;;;;-71
2023/03/05 16:02:12;;;;;;;;;;;;;;;8.01;82.16016;101439;;;;-70
2023/03/05 16:02:39;;;;;;;1.4;0.5;;;;;;;;;;;;;-71
2023/03/05 16:07:12;;;;;;;;;;;;;;;7.89;81.80957;101433.3;;;;-71
2023/03/05 16:12:16;;;;;;;;;;;;;;;7.76;81.9375;101422.2;;;;-71
2023/03/05 16:17:12;;;;;;;;;;;;;;;7.64;82.06934;101420.2;;;;-72
2023/03/05 16:22:12;;;;;;;;;;;;;;;7.52;81.86035;101414.6;;;;-72
2023/03/05 16:27:12;;;;;;;;;;;;;;;7.42;82.11621;101410.8;;;;-71
2023/03/05 16:32:13;;;;;;;;;;;;;;;7.31;82.41309;101410.1;;;;-71
2023/03/05 16:32:37;;;;;;;1.7;0.4;;;;;;;;;;;;;-71
2023/03/05 16:37:12;;;;;;;;;;;;;;;7.21;82.83496;101406;;;;-71
2023/03/05 16:42:12;;;;;;;;;;;;;;;7.11;82.92383;101394.2;;;;-70
2023/03/05 16:47:13;;;;;;;;;;;;;;;6.99;83.02148;101393.2;;;;-72
2023/03/05 16:52:12;;;;;;;;;;;;;;;6.86;83.22754;101392.9;;;;-71
2023/03/05 16:57:12;;;;;;;;;;;;;;;6.74;83.40039;101391.7;;;;-72
2023/03/05 17:02:14;;;;;;;;;;;;;;;6.61;84.06543;101388.8;;;;-71
2023/03/05 17:02:37;;;;;;;1;0.4;;;;;;;;;;;;;-69
2023/03/05 17:07:12;;;;;;;;;;;;;;;6.48;84.28223;101381.1;;;;-71
2023/03/05 17:12:13;;;;;;;;;;;;;;;6.38;84.11816;101370.6;;;;-71
2023/03/05 17:17:12;;;;;;;;;;;;;;;6.27;84.00098;101369.4;;;;-71
2023/03/05 17:22:14;;;;;;;;;;;;;;;6.17;84.01367;101367.2;;;;-70
2023/03/05 17:27:13;;;;;;;;;;;;;;;6.06;84.36523;101363.3;;;;-71
2023/03/05 17:32:12;;;;;;;;;;;;;;;5.94;84.9082;101353.6;;;;-71
2023/03/05 17:32:40;;;;;;;1;0.5;;;;;;;;;;;;;-72
2023/03/05 17:37:12;;;;;;;;;;;;;;;5.82;85.20215;101354.8;;;;-71
2023/03/05 17:42:14;;;;;;;;;;;;;;;5.73;85.27148;101360.5;;;;-71
2023/03/05 17:47:12;;;;;;;;;;;;;;;5.64;85.16602;101359.8;;;;-71
2023/03/05 17:52:12;;;;;;;;;;;;;;;5.6;85.19238;101361.1;;;;-71
2023/03/05 17:57:12;;;;;;;;;;;;;;;5.49;84.60059;101361.6;;;;-71
2023/03/05 18:02:12;;;;;;;;;;;;;;;5.38;84.54883;101360;;;;-71
2023/03/05 18:02:38;;;;;;;1.5;0.6;;;;;;;;;;;;;-71
2023/03/05 18:07:12;;;;;;;;;;;;;;;5.33;84.90918;101360.4;;;;-70
2023/03/05 18:12:12;;;;;;;;;;;;;;;5.26;84.71094;101354.7;;;;-69
2023/03/05 18:17:12;;;;;;;;;;;;;;;5.19;84.79492;101350;;;;-71
2023/03/05 18:22:12;;;;;;;;;;;;;;;5.12;84.73828;101341.5;;;;-71
2023/03/05 18:27:12;;;;;;;;;;;;;;;5.05;84.54785;101341.2;;;;-71
2023/03/05 18:32:12;;;;;;;;;;;;;;;5;85.01953;101334.5;;;;-70
2023/03/05 18:32:39;;;;;;;1.2;0.6;;;;;;;;;;;;;-71
2023/03/05 18:37:12;;;;;;;;;;;;;;;4.93;85.02637;101329.5;;;;-71
2023/03/05 18:42:13;;;;;;;;;;;;;;;4.87;85.25391;101321.5;;;;-72
2023/03/05 18:47:12;;;;;;;;;;;;;;;4.81;85.16699;101309.1;;;;-71
2023/03/05 18:52:23;;;;;;;;;;;;;;;4.76;85.3418;101307.8;;;;-71
2023/03/05 18:57:12;;;;;;;;;;;;;;;4.7;85.30859;101300.6;;;;-71
2023/03/05 19:02:15;;;;;;;;;;;;;;;4.62;85.70898;101293.5;;;;-71
2023/03/05 19:02:39;;;;;;;1.7;0.7;;;;;;;;;;;;;-72
2023/03/05 19:07:12;;;;;;;;;;;;;;;4.56;85.81348;101288.7;;;;-72
2023/03/05 19:12:12;;;;;;;;;;;;;;;4.47;85.64551;101289.2;;;;-71
2023/03/05 19:17:12;;;;;;;;;;;;;;;4.37;85.83203;101287.2;;;;-71
2023/03/05 19:22:12;;;;;;;;;;;;;;;4.29;85.6748;101283.1;;;;-72
2023/03/05 19:27:15;;;;;;;;;;;;;;;4.24;85.7832;101273.7;;;;-70
2023/03/05 19:32:14;;;;;;;;;;;;;;;4.19;85.52344;101272.8;;;;-72
2023/03/05 19:32:39;;;;;;;2.4;0.9;;;;;;;;;;;;;-70
2023/03/05 19:37:12;;;;;;;;;;;;;;;4.15;85.88672;101269;;;;-71
2023/03/05 19:42:12;;;;;;;;;;;;;;;4.09;86.05859;101261.4;;;;-72
2023/03/05 19:47:12;;;;;;;;;;;;;;;4.06;86.19336;101257.4;;;;-72
2023/03/05 19:52:12;;;;;;;;;;;;;;;4.03;86.38379;101256.1;;;;-71
2023/03/05 19:57:12;;;;;;;;;;;;;;;3.98;86.01563;101250.4;;;;-70
2023/03/05 20:02:13;;;;;;;;;;;;;;;3.92;86.02441;101244;;;;-71
2023/03/05 20:02:39;;;;;;;3.3;1;;;;;;;;;;;;;-72
2023/03/05 20:07:15;;;;;;;;;;;;;;;3.92;85.86133;101234.3;;;;-70
2023/03/05 20:12:12;;;;;;;;;;;;;;;3.91;86.47949;101234.7;;;;-71
2023/03/05 20:17:12;;;;;;;;;;;;;;;3.89;86.10742;101228.9;;;;-71
2023/03/05 20:22:12;;;;;;;;;;;;;;;3.88;86.07129;101226;;;;-71
2023/03/05 20:27:12;;;;;;;;;;;;;;;3.86;86.30566;101228.6;;;;-71
2023/03/05 20:32:13;;;;;;;;;;;;;;;3.82;86.24512;101224.8;;;;-71
2023/03/05 20:32:39;;;;;;;3.7;1.3;;;;;;;;;;;;;-72
2023/03/05 20:37:12;;;;;;;;;;;;;;;3.83;86.45215;101219.1;;;;-72
2023/03/05 20:42:12;;;;;;;;;;;;;;;3.8;86.22949;101220.2;;;;-73
2023/03/05 20:47:39;;;;;;;;;;;;;;;3.78;86.51855;101218;;;;-71
2023/03/05 20:52:12;;;;;;;;;;;;;;;3.76;86.40527;101217.9;;;;-70
2023/03/05 20:57:12;;;;;;;;;;;;;;;3.76;86.64551;101217.5;;;;-72
2023/03/05 21:02:12;;;;;;;;;;;;;;;3.74;86.56445;101216.7;;;;-72
2023/03/05 21:02:38;;;;;;;3.2;1.4;;;;;;;;;;;;;-70
2023/03/05 21:07:12;;;;;;;;;;;;;;;3.71;86.38672;101206.2;;;;-71
2023/03/05 21:12:12;;;;;;;;;;;;;;;3.72;87.01855;101197.5;;;;-71
2023/03/05 21:17:12;;;;;;;;;;;;;;;3.69;86.54395;101187;;;;-71
2023/03/05 21:22:12;;;;;;;;;;;;;;;3.68;86.55371;101180.3;;;;-71
2023/03/05 21:27:12;;;;;;;;;;;;;;;3.61;86.77734;101170.7;;;;-71
2023/03/05 21:32:12;;;;;;;;;;;;;;;3.53;86.55664;101167.2;;;;-71
2023/03/05 21:32:39;;;;;;;2.6;1.2;;;;;;;;;;;;;-72
2023/03/05 21:37:12;;;;;;;;;;;;;;;3.43;86.51465;101166.3;;;;-72
2023/03/05 21:42:13;;;;;;;;;;;;;;;3.38;86.70996;101158.5;;;;-71
2023/03/05 21:47:12;;;;;;;;;;;;;;;3.27;86.9375;101153.5;;;;-70
2023/03/05 21:52:14;;;;;;;;;;;;;;;3.17;86.8418;101150.1;;;;-71
2023/03/05 21:57:13;;;;;;;;;;;;;;;3.07;87.17969;101140.2;;;;-71
2023/03/05 22:02:12;;;;;;;;;;;;;;;2.99;86.94629;101136.2;;;;-71
2023/03/05 22:02:38;;;;;;;1.8;0.9;;;;;;;;;;;;;-71
2023/03/05 22:07:12;;;;;;;;;;;;;;;2.88;86.92383;101135.2;;;;-71
2023/03/05 22:17:12;;;;;;;;;;;;;;;2.7;87.33301;101114.8;;;;-72
2023/03/05 22:22:12;;;;;;;;;;;;;;;2.69;87.10059;101107.8;;;;-71
2023/03/05 22:27:12;;;;;;;;;;;;;;;2.65;87.61523;101103.4;;;;-71
2023/03/05 22:32:12;;;;;;;;;;;;;;;2.62;87.41211;101095.1;;;;-71
2023/03/05 22:32:40;;;;;;;1.2;0.6;;;;;;;;;;;;;-71
2023/03/05 22:37:12;;;;;;;;;;;;;;;2.6;86.89941;101083.2;;;;-71
2023/03/05 22:42:12;;;;;;;;;;;;;;;2.56;87.36914;101073;;;;-72
2023/03/05 22:47:12;;;;;;;;;;;;;;;2.52;87.49121;101066.8;;;;-72
2023/03/05 22:52:12;;;;;;;;;;;;;;;2.43;87.36426;101064.1;;;;-70
2023/03/05 22:57:12;;;;;;;;;;;;;;;2.43;87.50586;101055.8;;;;-71
2023/03/05 23:02:12;;;;;;;;;;;;;;;2.39;87.36621;101052.6;;;;-71
2023/03/05 23:02:38;;;;;;;1.5;0.7;;;;;;;;;;;;;-72
2023/03/05 23:07:12;;;;;;;;;;;;;;;2.3;87.4043;101052;;;;-71
2023/03/05 23:12:12;;;;;;;;;;;;;;;2.28;87.36621;101045.7;;;;-72
2023/03/05 23:17:12;;;;;;;;;;;;;;;2.21;87.78418;101044.6;;;;-71
2023/03/05 23:22:13;;;;;;;;;;;;;;;2.19;87.45508;101038.3;;;;-70
2023/03/05 23:27:13;;;;;;;;;;;;;;;2.12;87.57227;101034.5;;;;-71
2023/03/05 23:32:12;;;;;;;;;;;;;;;2.1;87.99121;101020.5;;;;-70
2023/03/05 23:32:37;;;;;;;2;0.8;;;;;;;;;;;;;-70
2023/03/05 23:37:12;;;;;;;;;;;;;;;2.06;87.83008;101021.2;;;;-71
2023/03/05 23:42:12;;;;;;;;;;;;;;;2.02;87.42188;101018.3;;;;-71
2023/03/05 23:47:12;;;;;;;;;;;;;;;1.99;87.60938;101016.4;;;;-71
2023/03/05 23:52:12;;;;;;;;;;;;;;;2;87.42969;101017.5;;;;-71
2023/03/05 23:57:12;;;;;;;;;;;;;;;1.98;87.86719;101008;;;;-71
